This is the latest recevied weather packets stored in our database for station/object DL2GPS-3. If no packets are shown the sender has not sent any weather packets the latest 10 day(s).
| Time | Temp. | Humidity | Pressure | Rain* | Wind** | Luminosity | Snow |
|---|---|---|---|---|---|---|---|
| 1788099959 | 22.22° C | 66% | 1019.7 hPa | - | - | - | - |
| 1788099357 | 22.78° C | 66% | 1019.7 hPa | - | - | - | - |
| 1788098756 | 22.78° C | 68% | 1019.8 hPa | - | - | - | - |
| 1788098155 | 23.33° C | 67% | 1019.8 hPa | - | - | - | - |
| 1788097554 | 23.33° C | 70% | 1019.9 hPa | - | - | - | - |
| 1788096953 | 22.78° C | 69% | 1020 hPa | - | - | - | - |
| 1788096352 | 22.22° C | 70% | 1020.1 hPa | - | - | - | - |
| 1788095751 | 22.78° C | 70% | 1020 hPa | - | - | - | - |
| 1788095150 | 22.78° C | 72% | 1020.1 hPa | - | - | - | - |
| 1788094549 | 22.22° C | 77% | 1020.1 hPa | - | - | - | - |
| 1788093948 | 22.22° C | 75% | 1020.1 hPa | - | - | - | - |
| 1788093347 | 22.22° C | 75% | 1020.1 hPa | - | - | - | - |
| 1788092746 | 21.67° C | 72% | 1020.1 hPa | - | - | - | - |
| 1788092145 | 22.22° C | 73% | 1020.1 hPa | - | - | - | - |
| 1788091545 | 22.78° C | 70% | 1020.1 hPa | - | - | - | - |
| 1788090946 | 22.78° C | 74% | 1020.1 hPa | - | - | - | - |
| 1788090343 | 22.78° C | 72% | 1020.2 hPa | - | - | - | - |
| 1788089742 | 22.22° C | 76% | 1020.1 hPa | - | - | - | - |
| 1788089142 | 20.56° C | 82% | 1020.4 hPa | - | - | - | - |
| 1788088541 | 21.11° C | 81% | 1020.3 hPa | - | - | - | - |
| 1788087940 | 21.67° C | 80% | 1020.4 hPa | - | - | - | - |
| 1788087340 | 20° C | 87% | 1020.4 hPa | - | - | - | - |
| 1788086738 | 20° C | 87% | 1020.4 hPa | - | - | - | - |
| 1788086138 | 20.56° C | 82% | 1020.5 hPa | - | - | - | - |
| 1788085536 | 21.67° C | 78% | 1020.5 hPa | - | - | - | - |
* Rain since midnight (hover to see other rain measurements)
** Current wind speed in m/s (hover to see current wind gust speed)